Time;durP1;ratioP1;P1;durP2;ratioP2;P2;SDS_P1;SDS_P2;PMS_P1;PMS_P2;Temp;Humidity;BMP_temperature;BMP_pressure;BME280_temperature;BME280_humidity;BME280_pressure;Samples;Min_cycle;Max_cycle;Signal;HPM_P1;HPM_P2
2023/10/12 00:02:00;;;;;;;10.82;5.13;;;18.40;99.90;;;;;;4995173;28;20030;-45
2023/10/12 00:05:00;;;;;;;12.77;4.97;;;18.40;99.90;;;;;;4995055;28;20032;-45
2023/10/12 00:07:36;;;;;;;10.85;4.00;;;18.40;99.90;;;;;;4995004;28;20401;-48
2023/10/12 00:12:46;;;;;;;12.77;5.28;;;18.40;99.90;;;;;;4994988;28;20030;-47
2023/10/12 00:15:23;;;;;;;9.35;4.82;;;18.40;99.90;;;;;;4994928;28;20398;-45
2023/10/12 00:17:56;;;;;;;9.93;4.65;;;18.40;99.90;;;;;;4995025;28;20109;-46
2023/10/12 00:20:34;;;;;;;15.18;5.07;;;18.40;99.90;;;;;;4994895;28;20101;-47
2023/10/12 00:23:10;;;;;;;13.48;5.03;;;18.30;99.90;;;;;;4994686;28;20022;-46
2023/10/12 00:25:55;;;;;;;10.95;4.93;;;18.30;99.90;;;;;;4994435;28;20030;-45
2023/10/12 00:28:22;;;;;;;16.47;5.17;;;18.30;99.90;;;;;;4994757;28;20050;-48
2023/10/12 00:31:03;;;;;;;14.75;5.57;;;18.30;99.90;;;;;;4994712;28;20038;-45
2023/10/12 00:33:28;;;;;;;10.30;4.57;;;18.20;99.90;;;;;;4994417;28;20544;-46
2023/10/12 00:36:04;;;;;;;11.77;5.88;;;18.20;99.90;;;;;;4994324;28;20032;-45
2023/10/12 00:38:30;;;;;;;12.70;5.07;;;18.20;99.90;;;;;;4994487;28;20033;-45
2023/10/12 00:40:57;;;;;;;12.85;4.88;;;18.20;99.90;;;;;;4994458;28;20455;-46
2023/10/12 00:43:38;;;;;;;12.18;4.95;;;18.20;99.90;;;;;;4994356;28;20030;-45
2023/10/12 00:46:20;;;;;;;7.72;4.72;;;18.20;99.90;;;;;;4994290;28;20479;-48
2023/10/12 00:48:47;;;;;;;11.68;5.38;;;18.20;99.90;;;;;;4994492;28;20405;-45
2023/10/12 00:51:16;;;;;;;13.13;5.03;;;18.10;99.90;;;;;;4993584;28;20104;-45
2023/10/12 00:53:55;;;;;;;16.90;6.22;;;18.10;99.90;;;;;;4993943;28;20062;-45
2023/10/12 00:56:22;;;;;;;13.57;4.85;;;18.10;99.90;;;;;;4994025;28;20062;-46
2023/10/12 00:58:50;;;;;;;11.40;5.50;;;18.10;99.90;;;;;;4994019;28;20022;-44
2023/10/12 01:01:18;;;;;;;9.55;5.07;;;18.10;99.90;;;;;;4992908;28;20393;-45
2023/10/12 01:03:45;;;;;;;10.60;4.35;;;18.10;99.90;;;;;;4993808;28;20050;-46
2023/10/12 01:08:47;;;;;;;15.60;5.05;;;18.00;99.90;;;;;;4993904;28;20084;-46
2023/10/12 01:11:21;;;;;;;15.85;4.57;;;18.00;99.90;;;;;;4993900;28;20030;-48
2023/10/12 01:14:02;;;;;;;14.23;5.28;;;18.00;99.90;;;;;;4993730;28;20022;-47
2023/10/12 01:16:43;;;;;;;10.88;5.32;;;18.00;99.90;;;;;;4993623;28;20034;-45
2023/10/12 01:19:09;;;;;;;9.55;4.38;;;18.00;99.90;;;;;;4993466;28;20054;-45
2023/10/12 01:21:38;;;;;;;14.20;5.03;;;18.00;99.90;;;;;;4993672;28;20050;-48
2023/10/12 01:24:13;;;;;;;13.13;4.93;;;18.00;99.90;;;;;;4993373;28;20030;-47
2023/10/12 01:26:40;;;;;;;;;;;17.90;99.90;;;;;;4993769;28;20036;-46
2023/10/12 01:29:10;;;;;;;16.90;5.72;;;17.90;99.90;;;;;;4993342;28;20381;-45
2023/10/12 01:31:36;;;;;;;14.70;5.40;;;17.90;99.90;;;;;;4993333;28;20053;-48
2023/10/12 01:34:03;;;;;;;12.85;5.00;;;17.90;99.90;;;;;;4993184;28;20026;-45
2023/10/12 01:36:30;;;;;;;9.43;5.10;;;17.90;99.90;;;;;;4993446;28;20037;-48
2023/10/12 01:39:12;;;;;;;11.38;4.43;;;17.90;99.90;;;;;;4993198;28;20744;-45
2023/10/12 01:41:42;;;;;;;29.15;6.05;;;17.90;99.90;;;;;;4993204;28;20065;-46
2023/10/12 01:44:12;;;;;;;8.75;5.07;;;17.90;99.90;;;;;;4993014;28;20018;-45
2023/10/12 01:46:41;;;;;;;10.98;4.93;;;17.80;99.90;;;;;;4993020;28;20442;-45
2023/10/12 01:49:08;;;;;;;11.55;4.28;;;17.80;99.90;;;;;;4993248;28;20033;-45
2023/10/12 01:51:40;;;;;;;10.95;5.32;;;17.80;99.90;;;;;;4993125;28;20053;-47
2023/10/12 01:54:11;;;;;;;16.17;5.35;;;17.80;99.90;;;;;;4992829;28;20030;-48
2023/10/12 01:56:37;;;;;;;11.00;5.00;;;17.60;99.90;;;;;;4993063;28;20022;-46
2023/10/12 01:59:06;;;;;;;11.85;4.70;;;17.60;99.90;;;;;;4991717;28;20081;-45
2023/10/12 02:01:33;;;;;;;12.63;4.70;;;17.60;99.90;;;;;;4993017;28;20022;-45
2023/10/12 02:04:02;;;;;;;11.02;4.25;;;17.60;99.90;;;;;;4992620;28;20045;-45
2023/10/12 02:06:30;;;;;;;8.00;3.85;;;17.60;99.90;;;;;;4992719;28;20018;-45
2023/10/12 02:09:10;;;;;;;11.98;5.38;;;17.60;99.90;;;;;;4992872;28;20058;-44
2023/10/12 02:11:42;;;;;;;15.48;5.30;;;17.60;99.90;;;;;;4992875;28;20030;-45
2023/10/12 02:14:11;;;;;;;16.10;5.78;;;17.60;99.90;;;;;;4992503;28;20026;-43
2023/10/12 02:16:39;;;;;;;10.50;5.45;;;17.50;99.90;;;;;;4992427;28;20033;-43
2023/10/12 02:19:07;;;;;;;10.75;5.03;;;17.50;99.90;;;;;;4992406;28;20030;-45
2023/10/12 02:21:37;;;;;;;13.35;5.38;;;17.50;99.90;;;;;;4992325;28;20046;-43
2023/10/12 02:26:52;;;;;;;13.80;5.07;;;17.50;99.90;;;;;;4992458;28;20478;-44
2023/10/12 02:29:18;;;;;;;12.05;4.57;;;17.50;99.90;;;;;;4992479;28;20057;-43
2023/10/12 02:34:19;;;;;;;10.88;4.90;;;17.40;99.90;;;;;;4992241;28;20026;-46
2023/10/12 02:36:59;;;;;;;14.80;5.63;;;17.30;99.90;;;;;;4992172;28;20068;-45
2023/10/12 02:39:26;;;;;;;12.52;4.80;;;17.40;99.90;;;;;;4992157;28;20022;-46
2023/10/12 02:44:56;;;;;;;15.30;4.80;;;17.30;99.90;;;;;;4992182;28;20037;-46
2023/10/12 02:47:22;;;;;;;9.75;4.85;;;17.30;99.90;;;;;;4992092;28;20366;-44
2023/10/12 02:50:00;;;;;;;12.40;5.97;;;17.30;99.90;;;;;;4992121;28;20034;-49
2023/10/12 02:52:27;;;;;;;11.98;5.13;;;17.30;99.90;;;;;;4992173;28;20033;-44
2023/10/12 02:54:55;;;;;;;12.80;4.95;;;17.30;99.90;;;;;;4992157;28;20041;-45
2023/10/12 02:57:25;;;;;;;10.98;5.15;;;17.20;99.90;;;;;;4990695;28;20037;-47
2023/10/12 03:00:13;;;;;;;12.52;4.70;;;17.10;99.90;;;;;;4992177;28;20029;-44
2023/10/12 03:02:44;;;;;;;8.05;5.13;;;17.10;99.90;;;;;;4992294;28;20397;-44
2023/10/12 03:05:10;;;;;;;9.10;4.80;;;17.00;99.90;;;;;;4991967;28;20022;-45
2023/10/12 03:07:38;;;;;;;16.83;5.45;;;17.00;99.90;;;;;;4991920;28;20027;-44
2023/10/12 03:10:23;;;;;;;18.80;5.65;;;17.00;99.90;;;;;;4992182;28;20022;-44
2023/10/12 03:12:54;;;;;;;14.32;5.43;;;17.10;99.90;;;;;;4992100;28;20026;-43
2023/10/12 03:15:21;;;;;;;7.20;4.88;;;17.10;99.90;;;;;;4994026;28;20034;-44
2023/10/12 03:17:54;;;;;;;13.02;5.10;;;17.10;99.90;;;;;;4995781;28;20100;-45
2023/10/12 03:20:22;;;;;;;9.57;5.90;;;17.10;99.90;;;;;;4996369;28;20023;-44
2023/10/12 03:22:59;;;;;;;11.48;5.55;;;17.10;99.90;;;;;;4994363;28;20086;-45
2023/10/12 03:25:42;;;;;;;13.98;5.22;;;17.10;99.90;;;;;;4995859;28;20026;-44
2023/10/12 03:28:29;;;;;;;16.58;5.15;;;17.10;99.90;;;;;;4995847;28;20022;-44
2023/10/12 03:31:10;;;;;;;13.07;5.70;;;17.10;99.90;;;;;;4995745;28;20030;-45
2023/10/12 03:33:36;;;;;;;20.63;4.68;;;17.10;99.90;;;;;;4995518;28;20038;-47
2023/10/12 03:36:22;;;;;;;11.18;5.15;;;17.10;99.90;;;;;;4995524;28;20050;-46
2023/10/12 03:47:29;;;;;;;18.20;5.15;;;17.10;99.90;;;;;;4995387;28;20371;-44
2023/10/12 03:49:58;;;;;;;13.32;5.30;;;17.10;99.90;;;;;;4995404;28;20476;-44
2023/10/12 03:52:39;;;;;;;11.57;4.90;;;17.10;99.90;;;;;;4995168;28;20497;-45
2023/10/12 04:05:21;;;;;;;10.52;5.10;;;17.20;99.90;;;;;;4995096;28;20026;-47
2023/10/12 04:13:09;;;;;;;10.32;4.78;;;17.20;99.90;;;;;;4995168;28;20077;-45
2023/10/12 04:16:09;;;;;;;11.23;4.95;;;17.20;99.90;;;;;;4994708;28;20022;-48
2023/10/12 04:18:28;;;;;;;14.07;5.28;;;17.20;99.90;;;;;;4994599;28;20486;-46
2023/10/12 04:20:57;;;;;;;11.93;4.82;;;17.20;99.90;;;;;;4994578;28;20027;-47
2023/10/12 04:26:34;;;;;;;7.53;4.50;;;17.20;99.90;;;;;;4993664;28;20045;-46
2023/10/12 04:28:57;;;;;;;13.65;4.68;;;17.30;99.90;;;;;;4994859;28;20056;-47
2023/10/12 04:34:08;;;;;;;8.90;5.20;;;17.40;99.90;;;;;;4994545;28;20030;-45
2023/10/12 04:41:38;;;;;;;15.95;5.65;;;17.30;99.90;;;;;;4994301;28;20049;-48
2023/10/12 04:46:49;;;;;;;6.43;4.40;;;17.30;99.90;;;;;;4994768;28;20089;-46
2023/10/12 04:51:52;;;;;;;11.93;5.07;;;17.20;99.90;;;;;;4994315;28;20533;-46
2023/10/12 04:54:23;;;;;;;13.80;5.85;;;17.20;99.90;;;;;;4993955;28;20394;-47
2023/10/12 04:59:26;;;;;;;11.90;5.32;;;17.30;99.90;;;;;;4994242;28;20022;-47
2023/10/12 05:07:27;;;;;;;20.10;4.85;;;17.50;99.90;;;;;;4993962;28;20027;-45
2023/10/12 05:09:56;;;;;;;11.52;5.43;;;17.50;99.90;;;;;;4992619;28;20429;-49
2023/10/12 05:12:23;;;;;;;13.00;5.03;;;17.40;99.90;;;;;;4993728;28;20445;-44
2023/10/12 05:14:55;;;;;;;14.55;4.40;;;17.40;99.90;;;;;;4992462;28;20076;-49
2023/10/12 05:17:21;;;;;;;10.98;5.00;;;17.40;99.90;;;;;;4993491;28;20018;-45
2023/10/12 05:19:47;;;;;;;15.00;5.80;;;17.40;99.90;;;;;;4993981;28;20389;-48
2023/10/12 05:22:13;;;;;;;13.60;5.78;;;17.30;99.90;;;;;;4993800;28;20026;-47
2023/10/12 05:24:39;;;;;;;13.32;4.65;;;17.30;99.90;;;;;;4993845;28;20022;-44
2023/10/12 05:27:19;;;;;;;8.50;4.82;;;17.30;99.90;;;;;;4993260;28;20041;-45
2023/10/12 05:29:51;;;;;;;14.48;5.07;;;17.20;99.90;;;;;;4993622;28;20026;-44
2023/10/12 05:39:46;;;;;;;11.50;4.82;;;17.10;99.90;;;;;;4994403;28;20032;-45
2023/10/12 05:42:15;;;;;;;17.13;5.57;;;17.10;99.90;;;;;;4994826;28;20121;-47
2023/10/12 05:44:42;;;;;;;9.82;4.70;;;17.10;99.90;;;;;;4994367;28;20030;-45
2023/10/12 05:47:11;;;;;;;10.30;4.72;;;17.10;99.90;;;;;;4994835;28;20046;-46
2023/10/12 05:49:41;;;;;;;15.15;4.63;;;17.10;99.90;;;;;;4994145;28;20054;-44
2023/10/12 05:52:08;;;;;;;18.83;5.35;;;17.20;99.90;;;;;;4993542;28;20018;-47
2023/10/12 05:54:34;;;;;;;9.88;5.35;;;17.20;99.90;;;;;;4993063;28;20117;-46
2023/10/12 05:57:06;;;;;;;14.40;5.45;;;17.20;99.90;;;;;;4993105;28;20026;-46
2023/10/12 05:59:32;;;;;;;16.38;4.95;;;17.20;99.90;;;;;;4993003;28;20034;-46
2023/10/12 06:02:01;;;;;;;7.85;5.05;;;17.20;99.90;;;;;;4992846;28;20077;-46
2023/10/12 06:04:27;;;;;;;13.00;4.90;;;17.10;99.90;;;;;;4992516;28;20504;-44
2023/10/12 06:06:53;;;;;;;13.27;5.35;;;17.10;99.90;;;;;;4992667;28;20034;-45
2023/10/12 06:09:23;;;;;;;13.02;5.05;;;17.10;99.90;;;;;;4992832;28;20517;-46
2023/10/12 06:11:51;;;;;;;8.23;4.80;;;17.20;99.90;;;;;;4993082;28;20036;-48
2023/10/12 06:14:22;;;;;;;13.23;4.65;;;17.20;99.90;;;;;;4992761;28;20022;-44
2023/10/12 06:16:54;;;;;;;13.82;5.32;;;17.30;99.90;;;;;;4992351;28;20109;-46
2023/10/12 06:19:26;;;;;;;12.70;6.43;;;17.30;99.90;;;;;;4992548;28;20037;-44
2023/10/12 06:21:53;;;;;;;15.57;5.15;;;17.30;99.90;;;;;;4992529;28;20079;-44
2023/10/12 06:24:33;;;;;;;9.95;5.18;;;17.30;99.90;;;;;;4992468;28;20402;-47
2023/10/12 06:27:22;;;;;;;11.75;5.00;;;17.30;99.90;;;;;;4992199;28;20018;-47
2023/10/12 06:29:52;;;;;;;12.05;5.07;;;17.30;99.90;;;;;;4992489;28;20204;-47
2023/10/12 06:32:31;;;;;;;9.48;6.43;;;17.30;99.90;;;;;;4990972;28;20031;-45
2023/10/12 06:37:49;;;;;;;14.75;5.93;;;17.30;99.90;;;;;;4992139;28;20030;-43
2023/10/12 06:41:01;;;;;;;10.75;5.50;;;17.30;99.90;;;;;;4992356;28;20485;-44
2023/10/12 06:48:43;;;;;;;11.48;5.97;;;17.30;99.90;;;;;;4988691;28;20490;-46
2023/10/12 06:51:10;;;;;;;11.57;4.90;;;17.30;99.90;;;;;;4972453;28;20209;-46
2023/10/12 06:53:37;;;;;;;16.52;5.28;;;17.40;99.90;;;;;;4988201;28;20513;-49
2023/10/12 06:59:03;;;;;;;17.38;5.40;;;17.40;99.90;;;;;;4991948;28;20043;-43
2023/10/12 07:01:37;;;;;;;14.35;5.03;;;17.40;99.90;;;;;;4988514;28;20026;-51
2023/10/12 07:04:12;;;;;;;15.75;5.85;;;17.40;99.90;;;;;;4991178;28;20027;-48
2023/10/12 07:06:39;;;;;;;12.82;5.38;;;17.50;99.90;;;;;;4991920;28;20077;-47
2023/10/12 07:09:06;;;;;;;12.30;5.47;;;17.50;99.90;;;;;;4991987;28;20027;-48
2023/10/12 07:11:32;;;;;;;17.90;5.78;;;17.50;99.90;;;;;;4991759;28;20093;-48
2023/10/12 07:14:04;;;;;;;12.48;5.57;;;17.50;99.90;;;;;;4991242;28;20026;-45
2023/10/12 07:16:31;;;;;;;11.75;4.75;;;17.50;99.90;;;;;;4991048;28;20023;-47
2023/10/12 07:18:58;;;;;;;13.60;5.90;;;17.50;99.90;;;;;;4992019;28;20031;-50
2023/10/12 07:21:24;;;;;;;12.27;5.32;;;17.50;99.90;;;;;;4990754;28;20105;-45
2023/10/12 07:23:52;;;;;;;18.05;5.78;;;17.50;99.90;;;;;;4990267;28;20198;-44
2023/10/12 07:26:19;;;;;;;15.88;4.55;;;17.50;99.90;;;;;;4991508;28;20057;-46
2023/10/12 07:28:49;;;;;;;17.88;5.00;;;17.50;99.90;;;;;;4990814;28;20527;-50
2023/10/12 07:36:44;;;;;;;14.02;5.15;;;17.60;99.90;;;;;;4992577;28;20030;-45
2023/10/12 07:39:20;;;;;;;15.38;5.00;;;17.50;99.90;;;;;;4992601;28;20019;-44
2023/10/12 07:42:00;;;;;;;17.83;5.70;;;17.60;99.90;;;;;;4990551;28;20053;-44
2023/10/12 07:44:27;;;;;;;13.65;4.95;;;17.60;99.90;;;;;;4991373;28;20065;-43
2023/10/12 07:46:57;;;;;;;18.58;5.78;;;17.60;99.90;;;;;;4989886;28;20482;-45
2023/10/12 07:57:15;;;;;;;20.02;5.80;;;17.60;99.90;;;;;;4992785;28;20482;-43
2023/10/12 07:59:54;;;;;;;15.80;6.13;;;17.70;99.90;;;;;;4992521;28;20054;-44
2023/10/12 08:05:17;;;;;;;11.40;5.07;;;17.60;99.90;;;;;;4995436;28;20102;-43
2023/10/12 08:21:23;;;;;;;10.10;5.20;;;17.80;99.90;;;;;;4995379;28;20096;-43
2023/10/12 08:39:49;;;;;;;12.68;5.63;;;17.90;99.90;;;;;;4992097;28;20490;-48
2023/10/12 08:44:50;;;;;;;14.13;5.90;;;17.90;99.90;;;;;;4994170;28;20162;-44
2023/10/12 08:52:30;;;;;;;16.05;7.05;;;17.80;99.90;;;;;;4993313;28;20037;-45
2023/10/12 08:58:01;;;;;;;12.65;6.28;;;17.90;99.90;;;;;;4993354;28;20502;-49
2023/10/12 09:05:51;;;;;;;30.80;18.23;;;17.90;99.90;;;;;;4994068;28;20367;-47
2023/10/12 09:10:55;;;;;;;33.28;19.83;;;17.90;99.90;;;;;;4994247;28;20042;-46
2023/10/12 09:13:22;;;;;;;16.23;7.03;;;17.80;99.90;;;;;;4992818;28;20339;-47
2023/10/12 09:15:56;;;;;;;16.02;5.63;;;17.80;99.90;;;;;;4993955;28;20067;-46
2023/10/12 09:18:30;;;;;;;11.02;6.72;;;17.80;99.90;;;;;;4994366;28;20085;-47
2023/10/12 09:26:32;;;;;;;14.15;5.75;;;17.90;99.90;;;;;;4985133;28;20034;-44
2023/10/12 09:29:12;;;;;;;16.65;7.30;;;17.90;99.90;;;;;;4993474;28;20022;-45
2023/10/12 09:36:37;;;;;;;12.48;6.57;;;17.80;99.90;;;;;;4993549;28;20034;-49
2023/10/12 09:39:11;;;;;;;11.63;6.05;;;17.80;99.90;;;;;;4993523;28;20030;-47
2023/10/12 09:41:41;;;;;;;12.85;6.78;;;17.80;99.90;;;;;;4992115;28;20153;-44
2023/10/12 09:44:11;;;;;;;10.50;6.25;;;17.80;99.90;;;;;;4992065;28;20069;-47
2023/10/12 09:46:47;;;;;;;11.13;5.85;;;17.90;99.90;;;;;;4993031;28;20026;-48
2023/10/12 09:49:27;;;;;;;14.00;7.00;;;17.80;99.90;;;;;;4993143;28;20470;-47
2023/10/12 09:52:00;;;;;;;8.35;6.25;;;17.80;99.90;;;;;;4993070;28;20096;-46
2023/10/12 09:54:45;;;;;;;14.70;7.78;;;17.80;99.90;;;;;;4992789;28;20125;-47
2023/10/12 09:57:27;;;;;;;19.05;7.78;;;17.80;99.90;;;;;;4991054;28;20034;-47
2023/10/12 09:59:59;;;;;;;15.35;6.38;;;17.70;99.90;;;;;;4993161;28;20054;-47
2023/10/12 10:02:29;;;;;;;20.25;7.72;;;17.70;99.90;;;;;;4980071;28;20027;-49
2023/10/12 10:05:11;;;;;;;11.45;6.47;;;17.70;99.90;;;;;;4972277;28;20052;-46
2023/10/12 10:07:58;;;;;;;14.25;7.00;;;17.70;99.90;;;;;;4973698;28;20106;-47
2023/10/12 10:10:31;;;;;;;11.10;6.50;;;17.80;99.90;;;;;;4973243;28;20054;-46
2023/10/12 10:13:10;;;;;;;18.67;6.97;;;17.80;99.90;;;;;;4979265;28;20034;-46
2023/10/12 10:15:55;;;;;;;10.57;6.55;;;17.80;99.90;;;;;;4992686;28;20019;-47
2023/10/12 10:18:28;;;;;;;12.57;6.47;;;17.80;99.90;;;;;;4992528;28;20405;-46
2023/10/12 10:21:01;;;;;;;16.90;7.15;;;17.80;99.90;;;;;;4992418;28;20517;-45
2023/10/12 10:23:35;;;;;;;12.20;6.88;;;17.70;99.90;;;;;;4992528;28;20026;-47
2023/10/12 10:26:17;;;;;;;21.40;7.45;;;17.70;99.90;;;;;;4992313;28;20110;-47
2023/10/12 10:28:58;;;;;;;11.40;6.00;;;17.70;99.90;;;;;;4992881;28;20029;-46
2023/10/12 10:31:25;;;;;;;23.15;7.63;;;17.80;99.90;;;;;;4992441;28;20061;-46
2023/10/12 10:33:57;;;;;;;10.27;6.15;;;17.80;99.90;;;;;;4992454;28;20058;-45
2023/10/12 10:36:26;;;;;;;14.80;7.13;;;17.80;99.90;;;;;;4992699;28;20026;-46
2023/10/12 10:41:23;;;;;;;21.48;9.13;;;17.90;99.90;;;;;;4991466;28;20022;-48
2023/10/12 10:43:51;;;;;;;152.18;98.68;;;17.90;99.90;;;;;;4992180;28;20030;-45
2023/10/12 10:46:17;;;;;;;15.52;9.85;;;17.90;99.90;;;;;;5018716;23;20038;-41
2023/10/12 10:48:49;;;;;;;14.82;9.73;;;17.90;99.90;;;;;;5011923;28;20486;-46
2023/10/12 10:51:19;;;;;;;18.20;8.73;;;17.90;99.90;;;;;;5011954;28;20040;-42
2023/10/12 10:53:51;;;;;;;14.10;9.13;;;17.90;99.90;;;;;;5011334;28;20026;-45
2023/10/12 10:56:16;;;;;;;13.30;7.18;;;17.90;99.90;;;;;;5011357;28;20405;-44
2023/10/12 10:58:46;;;;;;;15.68;7.50;;;17.90;99.90;;;;;;5011809;28;20034;-43
2023/10/12 11:01:14;;;;;;;13.10;7.57;;;18.00;99.90;;;;;;5011786;28;20024;-39
2023/10/12 11:03:40;;;;;;;21.25;7.28;;;18.00;99.90;;;;;;5011369;28;20034;-44
2023/10/12 11:06:21;;;;;;;10.43;6.88;;;18.00;99.90;;;;;;5011214;28;20041;-42
2023/10/12 11:09:09;;;;;;;19.90;8.18;;;18.00;99.90;;;;;;5010369;28;20072;-47
2023/10/12 11:11:38;;;;;;;17.10;6.70;;;18.10;99.90;;;;;;5011590;28;20022;-44
2023/10/12 11:14:11;;;;;;;9.93;6.25;;;18.00;99.90;;;;;;5009938;28;20084;-45
2023/10/12 11:16:37;;;;;;;14.48;8.48;;;17.90;99.90;;;;;;5011559;28;20018;-45
2023/10/12 11:19:08;;;;;;;19.35;7.25;;;17.90;99.90;;;;;;5011584;28;20030;-47
2023/10/12 11:21:34;;;;;;;15.07;7.63;;;17.90;99.90;;;;;;5012506;28;20033;-44
2023/10/12 11:24:01;;;;;;;14.32;7.18;;;17.90;99.90;;;;;;5009877;28;20025;-44
2023/10/12 11:26:28;;;;;;;16.60;7.95;;;17.90;99.90;;;;;;5012028;28;20423;-42
2023/10/12 11:29:04;;;;;;;21.40;8.80;;;17.90;99.90;;;;;;5012093;28;20048;-47
2023/10/12 11:31:30;;;;;;;11.82;7.47;;;18.00;99.90;;;;;;5012214;28;20032;-43
2023/10/12 11:33:58;;;;;;;19.48;8.77;;;18.00;99.90;;;;;;5010927;28;20120;-46
2023/10/12 11:36:24;;;;;;;14.75;8.65;;;18.00;99.90;;;;;;5013535;28;20038;-47
2023/10/12 11:39:00;;;;;;;15.63;8.48;;;18.00;99.90;;;;;;5015890;28;20026;-47
2023/10/12 11:41:27;;;;;;;11.57;7.60;;;18.10;99.90;;;;;;4996033;28;20015;-43
2023/10/12 11:43:57;;;;;;;14.73;8.15;;;18.10;99.90;;;;;;4996284;28;20125;-43
2023/10/12 11:46:24;;;;;;;13.80;7.82;;;18.10;99.90;;;;;;5005993;28;20028;-41
2023/10/12 11:49:10;;;;;;;16.98;8.15;;;18.10;99.90;;;;;;5015660;28;20036;-42
2023/10/12 11:51:51;;;;;;;15.68;7.68;;;18.10;99.90;;;;;;5015839;28;20065;-42
2023/10/12 11:54:20;;;;;;;13.40;7.93;;;18.10;99.90;;;;;;5018054;28;20026;-45
2023/10/12 11:56:49;;;;;;;16.35;8.55;;;18.00;99.90;;;;;;5017706;28;20093;-46
2023/10/12 11:59:27;;;;;;;17.05;9.48;;;18.00;99.90;;;;;;5017629;28;20025;-47
2023/10/12 12:01:57;;;;;;;18.48;9.05;;;;;;;;;;5014900;28;20030;-44
2023/10/12 12:04:39;;;;;;;15.95;10.98;;;;;;;;;;5015319;28;20490;-49
2023/10/12 12:07:05;;;;;;;24.42;14.15;;;18.20;99.90;;;;;;5015186;28;20030;-46
2023/10/12 12:09:31;;;;;;;32.20;18.80;;;18.20;99.90;;;;;;5014602;28;20489;-49
2023/10/12 12:11:57;;;;;;;15.95;9.52;;;18.20;99.90;;;;;;5014770;28;20026;-48
2023/10/12 12:14:23;;;;;;;18.95;9.40;;;18.10;99.90;;;;;;5014157;28;20029;-47
2023/10/12 12:16:48;;;;;;;12.95;8.25;;;18.20;99.90;;;;;;5014123;28;20029;-46
2023/10/12 12:19:19;;;;;;;19.50;8.95;;;18.20;99.90;;;;;;5015114;28;20053;-48
2023/10/12 12:21:46;;;;;;;14.93;9.23;;;18.20;99.90;;;;;;5003355;28;20029;-48
2023/10/12 12:26:46;;;;;;;14.55;8.80;;;18.20;99.90;;;;;;4995175;28;20022;-45
2023/10/12 12:29:15;;;;;;;13.65;8.63;;;18.30;99.90;;;;;;5004802;28;20092;-46
2023/10/12 12:31:40;;;;;;;18.63;9.23;;;18.30;99.90;;;;;;5014166;28;20049;-46
2023/10/12 12:34:06;;;;;;;15.13;8.60;;;18.30;99.90;;;;;;5014158;28;20037;-43
2023/10/12 12:36:32;;;;;;;15.48;8.63;;;18.30;99.90;;;;;;5014814;28;20212;-48
2023/10/12 12:39:00;;;;;;;13.88;7.60;;;18.30;99.90;;;;;;5014366;28;20022;-42
2023/10/12 12:41:26;;;;;;;14.70;8.25;;;18.40;99.90;;;;;;5012466;28;20494;-43
2023/10/12 12:43:52;;;;;;;15.15;8.55;;;18.40;99.90;;;;;;5014403;28;20080;-48
2023/10/12 12:46:19;;;;;;;16.27;8.98;;;18.40;99.90;;;;;;5012237;28;20030;-48
2023/10/12 12:48:45;;;;;;;19.48;8.18;;;18.40;99.90;;;;;;5011752;28;20485;-43
2023/10/12 12:51:15;;;;;;;16.17;8.75;;;18.40;99.90;;;;;;5013287;28;20109;-46
2023/10/12 12:53:42;;;;;;;10.93;7.18;;;18.50;99.90;;;;;;5013349;28;20401;-47
2023/10/12 12:56:10;;;;;;;12.13;8.30;;;18.50;99.90;;;;;;5013724;28;20034;-42
2023/10/12 12:58:36;;;;;;;13.98;7.80;;;18.40;99.90;;;;;;5013642;28;20026;-43
2023/10/12 13:01:03;;;;;;;13.50;9.00;;;18.30;99.90;;;;;;5012454;28;20363;-44
2023/10/12 13:03:29;;;;;;;12.55;7.03;;;18.30;99.90;;;;;;5013705;28;20044;-43
2023/10/12 13:05:55;;;;;;;10.73;7.65;;;18.30;99.90;;;;;;5013333;28;20452;-47
2023/10/12 13:08:22;;;;;;;55.08;40.28;;;18.30;99.90;;;;;;5013669;28;20088;-43
2023/10/12 13:10:48;;;;;;;18.38;11.35;;;18.30;99.90;;;;;;5014103;28;20454;-46
2023/10/12 13:13:13;;;;;;;25.85;16.60;;;18.30;99.90;;;;;;5013740;28;20109;-45
2023/10/12 13:15:47;;;;;;;12.45;8.82;;;18.30;99.90;;;;;;5012357;28;20029;-49
2023/10/12 13:18:15;;;;;;;12.65;8.00;;;18.40;99.90;;;;;;5012052;28;20022;-46
2023/10/12 13:20:46;;;;;;;17.38;8.85;;;18.30;99.90;;;;;;5012855;28;20025;-44
2023/10/12 13:23:17;;;;;;;13.73;7.88;;;18.30;99.90;;;;;;5011697;28;20113;-53
2023/10/12 13:25:43;;;;;;;15.65;7.70;;;18.20;99.90;;;;;;5008544;28;20490;-49
2023/10/12 13:28:10;;;;;;;13.52;6.93;;;18.20;99.90;;;;;;5004741;28;20033;-48
2023/10/12 13:30:36;;;;;;;18.58;8.40;;;18.20;99.90;;;;;;5010530;28;20049;-51
2023/10/12 13:33:05;;;;;;;21.05;8.80;;;18.20;99.90;;;;;;5010329;28;20474;-49
2023/10/12 13:38:09;;;;;;;15.73;8.57;;;18.30;99.90;;;;;;5012397;28;20105;-43
2023/10/12 13:40:40;;;;;;;12.63;7.40;;;18.30;99.90;;;;;;5013007;28;20963;-43
2023/10/12 13:43:14;;;;;;;16.77;7.25;;;18.30;99.90;;;;;;5012485;28;20064;-43
2023/10/12 13:45:49;;;;;;;15.18;8.90;;;18.30;99.90;;;;;;5012462;28;20018;-43
2023/10/12 13:48:25;;;;;;;15.90;7.72;;;18.30;99.90;;;;;;5012961;28;20022;-46
2023/10/12 13:51:04;;;;;;;16.88;8.98;;;18.20;99.90;;;;;;5012848;28;20026;-45
2023/10/12 13:53:35;;;;;;;11.00;8.43;;;18.10;99.90;;;;;;5011419;28;20482;-43
2023/10/12 13:56:04;;;;;;;15.93;8.43;;;18.10;99.90;;;;;;5012553;28;20022;-47
2023/10/12 13:58:32;;;;;;;17.52;8.38;;;18.00;99.90;;;;;;5012454;28;20117;-43
2023/10/12 14:01:02;;;;;;;19.48;8.02;;;18.00;99.90;;;;;;5012480;28;20056;-43
2023/10/12 14:03:28;;;;;;;13.07;7.28;;;18.00;99.90;;;;;;5012421;28;20017;-47
2023/10/12 14:06:00;;;;;;;57.92;41.65;;;18.00;99.90;;;;;;5012425;28;20149;-45
2023/10/12 14:08:28;;;;;;;22.40;13.05;;;18.00;99.90;;;;;;5012601;28;20516;-43
2023/10/12 14:10:54;;;;;;;14.80;10.38;;;18.00;99.90;;;;;;5012554;28;20026;-46
2023/10/12 14:13:20;;;;;;;12.77;7.43;;;18.00;99.90;;;;;;5011196;28;20026;-46
2023/10/12 14:15:47;;;;;;;15.10;7.97;;;18.00;99.90;;;;;;5012226;28;20030;-51
2023/10/12 14:18:16;;;;;;;14.07;7.68;;;18.00;99.90;;;;;;5011094;28;20497;-43
2023/10/12 14:20:45;;;;;;;12.98;8.60;;;17.90;99.90;;;;;;5012463;28;20025;-48
2023/10/12 14:23:13;;;;;;;12.25;7.28;;;18.00;99.90;;;;;;5012480;28;20091;-44
2023/10/12 14:25:42;;;;;;;17.33;8.93;;;17.90;99.90;;;;;;5011884;28;20022;-45
2023/10/12 14:28:09;;;;;;;15.25;7.60;;;17.90;99.90;;;;;;5012212;28;20027;-47
2023/10/12 14:30:36;;;;;;;16.63;8.57;;;18.00;99.90;;;;;;5012210;28;20025;-46
2023/10/12 14:33:03;;;;;;;17.60;8.40;;;17.90;99.90;;;;;;5012136;28;20030;-44
2023/10/12 14:35:30;;;;;;;15.23;8.70;;;17.90;99.90;;;;;;5011952;28;20053;-44
2023/10/12 14:37:56;;;;;;;13.80;7.90;;;17.90;99.90;;;;;;5012132;28;20026;-44
2023/10/12 14:40:29;;;;;;;13.02;8.23;;;17.90;99.90;;;;;;5012020;28;20504;-44
2023/10/12 14:42:56;;;;;;;17.60;8.98;;;17.90;99.90;;;;;;5011955;28;20053;-45
2023/10/12 14:45:24;;;;;;;19.83;8.90;;;17.80;99.90;;;;;;5012212;28;20021;-44
2023/10/12 14:47:50;;;;;;;13.65;8.05;;;17.80;99.90;;;;;;5010538;28;20041;-49
2023/10/12 14:50:17;;;;;;;13.82;8.70;;;17.80;99.90;;;;;;5011916;28;20037;-46
2023/10/12 14:52:43;;;;;;;15.88;7.55;;;17.80;99.90;;;;;;5012054;28;20398;-49
2023/10/12 14:55:10;;;;;;;14.40;8.38;;;17.80;99.90;;;;;;5011813;28;20021;-44
2023/10/12 14:57:38;;;;;;;19.20;8.73;;;17.80;99.90;;;;;;5011723;28;20565;-44
2023/10/12 15:00:22;;;;;;;15.05;6.93;;;17.80;99.90;;;;;;5011892;28;20061;-46
2023/10/12 15:02:48;;;;;;;13.27;8.05;;;17.80;99.90;;;;;;5012044;28;20018;-47
2023/10/12 15:05:14;;;;;;;12.63;7.70;;;17.80;99.90;;;;;;5011407;28;20029;-47
2023/10/12 15:07:39;;;;;;;14.20;8.73;;;17.80;99.90;;;;;;5011452;28;20018;-42
2023/10/12 15:10:06;;;;;;;20.15;8.57;;;17.80;99.90;;;;;;5011895;28;20056;-42
2023/10/12 15:12:33;;;;;;;10.05;8.00;;;17.80;99.90;;;;;;5015639;28;20026;-43
2023/10/12 15:15:08;;;;;;;14.05;7.43;;;17.80;99.90;;;;;;5015830;28;20041;-46
2023/10/12 15:17:38;;;;;;;15.43;8.10;;;17.80;99.90;;;;;;5016036;28;20493;-46
2023/10/12 15:20:05;;;;;;;12.43;8.00;;;17.80;99.90;;;;;;5015947;28;20034;-43
2023/10/12 15:22:31;;;;;;;19.63;8.50;;;17.80;99.90;;;;;;5015812;28;20022;-44
2023/10/12 15:24:56;;;;;;;19.38;9.23;;;17.80;99.90;;;;;;5015242;28;20105;-48
2023/10/12 15:27:22;;;;;;;15.90;8.18;;;17.90;99.90;;;;;;5015740;28;20442;-45
2023/10/12 15:29:48;;;;;;;14.82;8.73;;;17.90;99.90;;;;;;5015549;28;20026;-44
2023/10/12 15:32:15;;;;;;;13.82;8.55;;;17.90;99.90;;;;;;5015479;28;20049;-48
2023/10/12 15:34:42;;;;;;;12.45;7.40;;;17.80;99.90;;;;;;5015318;28;20026;-46
2023/10/12 15:37:08;;;;;;;14.63;8.20;;;17.90;99.90;;;;;;5015422;28;20036;-46
2023/10/12 15:39:33;;;;;;;15.48;8.38;;;17.90;99.90;;;;;;5015385;28;20543;-43